Aviation Digital Data Service (ADDS)

Output produced by TAFs form (2333 UTC 25 October 2014)
found at http://aviationweather.gov/adds/tafs/
 
KELP 252320Z 2600/2624 VRB04KT P6SM SKC 
     FM261800 23009KT P6SM FEW250